Terminal Aerodrome Forecast
Issued by NWS

Home | Current Version | Previous Version | Graphics & Text | Print | Product List | Glossary On
Versions: 1 2 3 4 5 6 7 8 9 10 11 12 13 14 15 16 17 18
000
FTUS43 KIWX 240643 AAA
TAFSBN
TAF AMD
KSBN 240643Z 2407/2506 25005KT 5SM SHRA VCTS SCT006 BKN021CB OVC080
     FM241000 19004KT 5SM BR BKN100
     FM241300 21010KT P6SM BKN250=

USA.gov is the U.S. government's official web portal to all federal, state and local government web resources and services.